This is the latest recevied weather packets stored in our database for station/object OM4MO-10. If no packets are shown the sender has not sent any weather packets the latest 10 day(s).
| Time | Temp. | Humidity | Pressure | Rain* | Wind** | Luminosity | Snow |
|---|---|---|---|---|---|---|---|
| 1777211400 | 13.33° C | 30% | 1039.2 hPa | - | - | - | - |
| 1777210199 | 13.89° C | 32% | 1037.9 hPa | - | - | - | - |
| 1777208999 | 13.89° C | 29% | 1039.3 hPa | - | - | - | - |
| 1777207799 | 13.33° C | 30% | 1038.4 hPa | - | - | - | - |
| 1777206599 | 13.33° C | 32% | 1036.9 hPa | - | - | - | - |
| 1777205399 | 13.33° C | 34% | 1035.7 hPa | - | - | - | - |
| 1777204199 | 13.33° C | 34% | 1035.4 hPa | - | - | - | - |
| 1777202999 | 12.22° C | 35% | 1035.4 hPa | - | - | - | - |
| 1777201798 | 12.22° C | 34% | 1035.3 hPa | - | - | - | - |
| 1777200598 | 11.67° C | 35% | 1034.2 hPa | - | - | - | - |
| 1777199398 | 11.67° C | 38% | 1033.8 hPa | - | - | - | - |
| 1777198198 | 12.78° C | 39% | 1032.9 hPa | - | - | - | - |
| 1777196998 | 11.67° C | 38% | 1033.2 hPa | - | - | - | - |
| 1777195798 | 10.56° C | 38% | 1033 hPa | - | - | - | - |
| 1777194598 | 11.67° C | 40% | 1031.1 hPa | - | - | - | - |
| 1777193398 | 12.22° C | 43% | 1029.2 hPa | - | - | - | - |
| 1777192198 | 10.56° C | 42% | 1029.5 hPa | - | - | - | - |
| 1777190997 | 10° C | 44% | 1028.5 hPa | - | - | - | - |
| 1777189798 | 10° C | 44% | 1027.8 hPa | - | - | - | - |
| 1777188597 | 8.89° C | 46% | 1026.8 hPa | - | - | - | - |
| 1777187397 | 8.33° C | 51% | 1024 hPa | - | - | - | - |
| 1777186197 | 9.44° C | 54% | 1022.2 hPa | - | - | - | - |
| 1777184997 | 8.33° C | 50% | 1024.5 hPa | - | - | - | - |
| 1777183797 | 8.89° C | 54% | 1022.8 hPa | - | - | - | - |
| 1777182597 | 9.44° C | 65% | 1019.1 hPa | - | - | - | - |
* Rain since midnight (hover to see other rain measurements)
** Current wind speed in m/s (hover to see current wind gust speed)